sensor_id;sensor_type;location;lat;lon;timestamp;pressure;altitude;pressure_sealevel;temperature;humidity
18819;BME280;9537;45.594;9.294;2022-12-29T00:00:26;100380.81;;;8.62;100.00
18819;BME280;9537;45.594;9.294;2022-12-29T00:01:28;100383.47;;;8.62;100.00
18819;BME280;9537;45.594;9.294;2022-12-29T00:02:30;100380.66;;;8.64;100.00
18819;BME280;9537;45.594;9.294;2022-12-29T00:03:31;100388.44;;;8.65;100.00
18819;BME280;9537;45.594;9.294;2022-12-29T00:04:34;100381.38;;;8.66;100.00
18819;BME280;9537;45.594;9.294;2022-12-29T00:05:35;100382.06;;;8.68;100.00
18819;BME280;9537;45.594;9.294;2022-12-29T00:06:38;100384.69;;;8.68;100.00
18819;BME280;9537;45.594;9.294;2022-12-29T00:07:39;100378.59;;;8.67;100.00
18819;BME280;9537;45.594;9.294;2022-12-29T00:08:41;100378.03;;;8.64;100.00
18819;BME280;9537;45.594;9.294;2022-12-29T00:09:42;100375.56;;;8.62;100.00
18819;BME280;9537;45.594;9.294;2022-12-29T00:10:44;100376.66;;;8.60;100.00
18819;BME280;9537;45.594;9.294;2022-12-29T00:11:45;100376.50;;;8.61;100.00
18819;BME280;9537;45.594;9.294;2022-12-29T00:12:47;100370.41;;;8.61;100.00
18819;BME280;9537;45.594;9.294;2022-12-29T00:14:08;100369.75;;;8.59;100.00
18819;BME280;9537;45.594;9.294;2022-12-29T00:15:28;100368.25;;;8.56;100.00
18819;BME280;9537;45.594;9.294;2022-12-29T00:16:39;100356.03;;;8.55;100.00
18819;BME280;9537;45.594;9.294;2022-12-29T00:17:42;100359.47;;;8.55;100.00
18819;BME280;9537;45.594;9.294;2022-12-29T00:18:43;100357.00;;;8.54;100.00
18819;BME280;9537;45.594;9.294;2022-12-29T00:19:45;100351.75;;;8.54;100.00
18819;BME280;9537;45.594;9.294;2022-12-29T00:21:04;100358.00;;;8.53;100.00
18819;BME280;9537;45.594;9.294;2022-12-29T00:22:25;100355.34;;;8.53;100.00
18819;BME280;9537;45.594;9.294;2022-12-29T00:23:44;100353.69;;;8.52;100.00
18819;BME280;9537;45.594;9.294;2022-12-29T00:25:04;100346.59;;;8.52;100.00
18819;BME280;9537;45.594;9.294;2022-12-29T00:26:24;100343.31;;;8.50;100.00
18819;BME280;9537;45.594;9.294;2022-12-29T00:27:58;100340.66;;;8.50;100.00
18819;BME280;9537;45.594;9.294;2022-12-29T00:29:17;100342.31;;;8.51;100.00
18819;BME280;9537;45.594;9.294;2022-12-29T00:30:37;100343.16;;;8.52;100.00
18819;BME280;9537;45.594;9.294;2022-12-29T00:31:56;100340.50;;;8.52;100.00
18819;BME280;9537;45.594;9.294;2022-12-29T00:33:17;100337.88;;;8.52;100.00
18819;BME280;9537;45.594;9.294;2022-12-29T00:34:36;100334.41;;;8.51;100.00
18819;BME280;9537;45.594;9.294;2022-12-29T00:35:59;100333.44;;;8.52;100.00
18819;BME280;9537;45.594;9.294;2022-12-29T00:37:02;100334.97;;;8.55;100.00
18819;BME280;9537;45.594;9.294;2022-12-29T00:38:06;100335.78;;;8.55;100.00
18819;BME280;9537;45.594;9.294;2022-12-29T00:39:27;100338.28;;;8.57;100.00
18819;BME280;9537;45.594;9.294;2022-12-29T00:40:46;100330.53;;;8.55;100.00
18819;BME280;9537;45.594;9.294;2022-12-29T00:42:07;100332.91;;;8.49;100.00
18819;BME280;9537;45.594;9.294;2022-12-29T00:43:33;100333.19;;;8.46;100.00
18819;BME280;9537;45.594;9.294;2022-12-29T00:44:52;100331.38;;;8.46;100.00
18819;BME280;9537;45.594;9.294;2022-12-29T00:45:54;100324.47;;;8.45;100.00
18819;BME280;9537;45.594;9.294;2022-12-29T00:46:55;100328.09;;;8.44;100.00
18819;BME280;9537;45.594;9.294;2022-12-29T00:47:57;100321.84;;;8.45;100.00
18819;BME280;9537;45.594;9.294;2022-12-29T00:48:58;100315.88;;;8.43;100.00
18819;BME280;9537;45.594;9.294;2022-12-29T00:50:18;100315.75;;;8.45;100.00
18819;BME280;9537;45.594;9.294;2022-12-29T00:51:20;100318.38;;;8.45;100.00
18819;BME280;9537;45.594;9.294;2022-12-29T00:52:24;100327.09;;;8.45;100.00
18819;BME280;9537;45.594;9.294;2022-12-29T00:53:28;100328.91;;;8.45;100.00
18819;BME280;9537;45.594;9.294;2022-12-29T00:54:31;100323.47;;;8.46;100.00
18819;BME280;9537;45.594;9.294;2022-12-29T00:55:36;100333.06;;;8.47;100.00
18819;BME280;9537;45.594;9.294;2022-12-29T00:56:37;100324.19;;;8.48;100.00
18819;BME280;9537;45.594;9.294;2022-12-29T00:57:39;100321.84;;;8.45;100.00
18819;BME280;9537;45.594;9.294;2022-12-29T00:58:40;100316.41;;;8.47;100.00
18819;BME280;9537;45.594;9.294;2022-12-29T00:59:42;100315.59;;;8.46;100.00
18819;BME280;9537;45.594;9.294;2022-12-29T01:00:45;100319.50;;;8.42;100.00
18819;BME280;9537;45.594;9.294;2022-12-29T01:01:47;100318.94;;;8.39;100.00
18819;BME280;9537;45.594;9.294;2022-12-29T01:02:49;100315.44;;;8.38;100.00
18819;BME280;9537;45.594;9.294;2022-12-29T01:03:50;100328.50;;;8.40;100.00
18819;BME280;9537;45.594;9.294;2022-12-29T01:04:52;100322.41;;;8.39;100.00
18819;BME280;9537;45.594;9.294;2022-12-29T01:05:53;100318.94;;;8.39;100.00
18819;BME280;9537;45.594;9.294;2022-12-29T01:06:55;100322.50;;;8.38;100.00
18819;BME280;9537;45.594;9.294;2022-12-29T01:07:56;100322.66;;;8.36;100.00
18819;BME280;9537;45.594;9.294;2022-12-29T01:09:00;100316.69;;;8.34;100.00
18819;BME280;9537;45.594;9.294;2022-12-29T01:10:19;100317.00;;;8.31;100.00
18819;BME280;9537;45.594;9.294;2022-12-29T01:11:20;100318.78;;;8.30;100.00
18819;BME280;9537;45.594;9.294;2022-12-29T01:12:21;100310.06;;;8.30;100.00
18819;BME280;9537;45.594;9.294;2022-12-29T01:13:38;100310.63;;;8.33;100.00
18819;BME280;9537;45.594;9.294;2022-12-29T01:14:42;100311.56;;;8.32;100.00
18819;BME280;9537;45.594;9.294;2022-12-29T01:15:49;100311.72;;;8.31;100.00
18819;BME280;9537;45.594;9.294;2022-12-29T01:16:52;100321.97;;;8.34;100.00
18819;BME280;9537;45.594;9.294;2022-12-29T01:17:53;100312.41;;;8.33;100.00
18819;BME280;9537;45.594;9.294;2022-12-29T01:18:55;100319.34;;;8.34;100.00
18819;BME280;9537;45.594;9.294;2022-12-29T01:19:55;100323.63;;;8.35;100.00
18819;BME280;9537;45.594;9.294;2022-12-29T01:21:01;100321.69;;;8.37;100.00
18819;BME280;9537;45.594;9.294;2022-12-29T01:22:02;100321.69;;;8.37;100.00
18819;BME280;9537;45.594;9.294;2022-12-29T01:23:04;100319.78;;;8.39;100.00
18819;BME280;9537;45.594;9.294;2022-12-29T01:24:08;100314.50;;;8.39;100.00
18819;BME280;9537;45.594;9.294;2022-12-29T01:25:10;100321.44;;;8.40;100.00
18819;BME280;9537;45.594;9.294;2022-12-29T01:26:12;100318.66;;;8.42;100.00
18819;BME280;9537;45.594;9.294;2022-12-29T01:27:15;100324.06;;;8.40;100.00
18819;BME280;9537;45.594;9.294;2022-12-29T01:28:16;100322.25;;;8.41;100.00
18819;BME280;9537;45.594;9.294;2022-12-29T01:29:18;100319.63;;;8.41;100.00
18819;BME280;9537;45.594;9.294;2022-12-29T01:30:20;100320.59;;;8.40;100.00
18819;BME280;9537;45.594;9.294;2022-12-29T01:31:21;100329.47;;;8.39;100.00
18819;BME280;9537;45.594;9.294;2022-12-29T01:32:23;100324.31;;;8.37;100.00
18819;BME280;9537;45.594;9.294;2022-12-29T01:33:24;100327.22;;;8.34;100.00
18819;BME280;9537;45.594;9.294;2022-12-29T01:34:26;100326.13;;;8.27;100.00
18819;BME280;9537;45.594;9.294;2022-12-29T01:35:27;100323.66;;;8.25;100.00
18819;BME280;9537;45.594;9.294;2022-12-29T01:36:29;100322.94;;;8.23;100.00
18819;BME280;9537;45.594;9.294;2022-12-29T01:37:31;100323.94;;;8.22;100.00
18819;BME280;9537;45.594;9.294;2022-12-29T01:38:33;100331.94;;;8.21;100.00
18819;BME280;9537;45.594;9.294;2022-12-29T01:39:36;100328.22;;;8.23;100.00
18819;BME280;9537;45.594;9.294;2022-12-29T01:40:44;100334.31;;;8.24;100.00
18819;BME280;9537;45.594;9.294;2022-12-29T01:41:45;100334.19;;;8.25;100.00
18819;BME280;9537;45.594;9.294;2022-12-29T01:42:47;100337.50;;;8.27;100.00
18819;BME280;9537;45.594;9.294;2022-12-29T01:43:51;100334.31;;;8.24;100.00
18819;BME280;9537;45.594;9.294;2022-12-29T01:44:55;100335.97;;;8.25;100.00
18819;BME280;9537;45.594;9.294;2022-12-29T01:45:56;100328.09;;;8.25;100.00
18819;BME280;9537;45.594;9.294;2022-12-29T01:46:58;100330.44;;;8.28;100.00
18819;BME280;9537;45.594;9.294;2022-12-29T01:48:02;100323.25;;;8.30;100.00
18819;BME280;9537;45.594;9.294;2022-12-29T01:49:10;100329.88;;;8.34;100.00
18819;BME280;9537;45.594;9.294;2022-12-29T01:50:16;100330.69;;;8.34;100.00
18819;BME280;9537;45.594;9.294;2022-12-29T01:51:21;100330.56;;;8.36;100.00
18819;BME280;9537;45.594;9.294;2022-12-29T01:52:24;100332.22;;;8.37;100.00
18819;BME280;9537;45.594;9.294;2022-12-29T01:53:31;100335.66;;;8.38;100.00
18819;BME280;9537;45.594;9.294;2022-12-29T01:54:38;100336.50;;;8.38;100.00
18819;BME280;9537;45.594;9.294;2022-12-29T01:55:45;100333.84;;;8.38;100.00
18819;BME280;9537;45.594;9.294;2022-12-29T01:56:50;100329.31;;;8.40;100.00
18819;BME280;9537;45.594;9.294;2022-12-29T01:57:53;100329.31;;;8.40;100.00
18819;BME280;9537;45.594;9.294;2022-12-29T01:59:02;100328.34;;;8.41;100.00
18819;BME280;9537;45.594;9.294;2022-12-29T02:00:08;100330.03;;;8.42;100.00
18819;BME280;9537;45.594;9.294;2022-12-29T02:01:10;100325.72;;;8.41;100.00
18819;BME280;9537;45.594;9.294;2022-12-29T02:02:12;100323.94;;;8.42;100.00
18819;BME280;9537;45.594;9.294;2022-12-29T02:03:17;100322.94;;;8.43;100.00
18819;BME280;9537;45.594;9.294;2022-12-29T02:04:22;100324.75;;;8.42;100.00
18819;BME280;9537;45.594;9.294;2022-12-29T02:05:29;100331.66;;;8.43;100.00
18819;BME280;9537;45.594;9.294;2022-12-29T02:06:38;100322.13;;;8.42;100.00
18819;BME280;9537;45.594;9.294;2022-12-29T02:07:43;100325.56;;;8.43;100.00
18819;BME280;9537;45.594;9.294;2022-12-29T02:08:46;100315.88;;;8.43;100.00
18819;BME280;9537;45.594;9.294;2022-12-29T02:09:51;100319.19;;;8.45;100.00
18819;BME280;9537;45.594;9.294;2022-12-29T02:10:54;100319.19;;;8.45;100.00
18819;BME280;9537;45.594;9.294;2022-12-29T02:11:57;100329.56;;;8.47;100.00
18819;BME280;9537;45.594;9.294;2022-12-29T02:12:59;100324.31;;;8.47;100.00
18819;BME280;9537;45.594;9.294;2022-12-29T02:14:01;100324.88;;;8.50;100.00
18819;BME280;9537;45.594;9.294;2022-12-29T02:15:04;100326.53;;;8.51;100.00
18819;BME280;9537;45.594;9.294;2022-12-29T02:16:18;100328.34;;;8.51;100.00
18819;BME280;9537;45.594;9.294;2022-12-29T02:17:31;100330.13;;;8.50;100.00
18819;BME280;9537;45.594;9.294;2022-12-29T02:18:43;100325.16;;;8.47;100.00
18819;BME280;9537;45.594;9.294;2022-12-29T02:20:21;100321.13;;;8.43;100.00
18819;BME280;9537;45.594;9.294;2022-12-29T02:21:52;100325.88;;;8.40;100.00
18819;BME280;9537;45.594;9.294;2022-12-29T02:23:21;100316.16;;;8.40;100.00
18819;BME280;9537;45.594;9.294;2022-12-29T02:26:46;100312.81;;;8.38;100.00
18819;BME280;9537;45.594;9.294;2022-12-29T02:28:10;100314.59;;;8.38;100.00
18819;BME280;9537;45.594;9.294;2022-12-29T02:29:40;100321.84;;;8.35;100.00
18819;BME280;9537;45.594;9.294;2022-12-29T02:31:00;100322.94;;;8.33;100.00
18819;BME280;9537;45.594;9.294;2022-12-29T02:32:06;100313.94;;;8.35;100.00
18819;BME280;9537;45.594;9.294;2022-12-29T02:33:18;100307.81;;;8.35;100.00
18819;BME280;9537;45.594;9.294;2022-12-29T02:34:28;100303.25;;;8.37;100.00
18819;BME280;9537;45.594;9.294;2022-12-29T02:35:36;100311.97;;;8.38;100.00
18819;BME280;9537;45.594;9.294;2022-12-29T02:36:45;100307.53;;;8.38;100.00
18819;BME280;9537;45.594;9.294;2022-12-29T02:37:58;100303.16;;;8.39;100.00
18819;BME280;9537;45.594;9.294;2022-12-29T02:39:05;100308.25;;;8.40;100.00
18819;BME280;9537;45.594;9.294;2022-12-29T02:40:18;100302.19;;;8.40;100.00
18819;BME280;9537;45.594;9.294;2022-12-29T02:41:26;100306.63;;;8.39;100.00
18819;BME280;9537;45.594;9.294;2022-12-29T02:42:36;100299.38;;;8.41;100.00
18819;BME280;9537;45.594;9.294;2022-12-29T02:43:44;100295.94;;;8.41;100.00
18819;BME280;9537;45.594;9.294;2022-12-29T02:44:55;100298.56;;;8.41;100.00
18819;BME280;9537;45.594;9.294;2022-12-29T02:46:06;100298.81;;;8.38;100.00
18819;BME280;9537;45.594;9.294;2022-12-29T02:47:16;100297.16;;;8.37;100.00
18819;BME280;9537;45.594;9.294;2022-12-29T02:48:25;100294.00;;;8.33;100.00
18819;BME280;9537;45.594;9.294;2022-12-29T02:49:34;100299.38;;;8.31;100.00
18819;BME280;9537;45.594;9.294;2022-12-29T02:50:39;100291.50;;;8.31;100.00
18819;BME280;9537;45.594;9.294;2022-12-29T02:51:46;100297.75;;;8.30;100.00
18819;BME280;9537;45.594;9.294;2022-12-29T02:52:54;100294.28;;;8.30;100.00
18819;BME280;9537;45.594;9.294;2022-12-29T02:53:59;100289.28;;;8.27;100.00
18819;BME280;9537;45.594;9.294;2022-12-29T02:55:18;100298.03;;;8.27;100.00
18819;BME280;9537;45.594;9.294;2022-12-29T02:56:19;100288.31;;;8.28;100.00
18819;BME280;9537;45.594;9.294;2022-12-29T02:57:32;100294.41;;;8.28;100.00
18819;BME280;9537;45.594;9.294;2022-12-29T02:58:34;100290.78;;;8.29;100.00
18819;BME280;9537;45.594;9.294;2022-12-29T02:59:35;100294.28;;;8.30;100.00
18819;BME280;9537;45.594;9.294;2022-12-29T03:00:47;100286.38;;;8.30;100.00
18819;BME280;9537;45.594;9.294;2022-12-29T03:03:37;100289.84;;;8.30;100.00
18819;BME280;9537;45.594;9.294;2022-12-29T03:04:54;100294.28;;;8.30;100.00
18819;BME280;9537;45.594;9.294;2022-12-29T03:06:15;100298.97;;;8.26;100.00
18819;BME280;9537;45.594;9.294;2022-12-29T03:07:24;100292.88;;;8.26;100.00
18819;BME280;9537;45.594;9.294;2022-12-29T03:08:35;100293.03;;;8.24;100.00
18819;BME280;9537;45.594;9.294;2022-12-29T03:09:46;100295.69;;;8.24;100.00
18819;BME280;9537;45.594;9.294;2022-12-29T03:10:54;100290.41;;;8.24;100.00
18819;BME280;9537;45.594;9.294;2022-12-29T03:12:06;100290.41;;;8.24;100.00
18819;BME280;9537;45.594;9.294;2022-12-29T03:13:17;100290.25;;;8.26;100.00
18819;BME280;9537;45.594;9.294;2022-12-29T03:14:57;100296.50;;;8.25;100.00
18819;BME280;9537;45.594;9.294;2022-12-29T03:16:21;100289.56;;;8.24;100.00
18819;BME280;9537;45.594;9.294;2022-12-29T03:17:28;100287.38;;;8.19;100.00
18819;BME280;9537;45.594;9.294;2022-12-29T03:18:40;100293.47;;;8.20;100.00
18819;BME280;9537;45.594;9.294;2022-12-29T03:19:47;100290.13;;;8.18;100.00
18819;BME280;9537;45.594;9.294;2022-12-29T03:20:54;100294.44;;;8.19;100.00
18819;BME280;9537;45.594;9.294;2022-12-29T03:21:57;100285.69;;;8.18;100.00
18819;BME280;9537;45.594;9.294;2022-12-29T03:23:16;100293.34;;;8.21;100.00
18819;BME280;9537;45.594;9.294;2022-12-29T03:24:24;100294.16;;;8.22;100.00
18819;BME280;9537;45.594;9.294;2022-12-29T03:25:29;100289.72;;;8.22;100.00
18819;BME280;9537;45.594;9.294;2022-12-29T03:26:32;100288.91;;;8.22;100.00
18819;BME280;9537;45.594;9.294;2022-12-29T03:27:36;100290.72;;;8.21;100.00
18819;BME280;9537;45.594;9.294;2022-12-29T03:28:45;100288.19;;;8.20;100.00
18819;BME280;9537;45.594;9.294;2022-12-29T03:29:50;100289.84;;;8.21;100.00
18819;BME280;9537;45.594;9.294;2022-12-29T03:30:55;100283.63;;;8.22;100.00
18819;BME280;9537;45.594;9.294;2022-12-29T03:31:59;100295.13;;;8.21;100.00
18819;BME280;9537;45.594;9.294;2022-12-29T03:33:08;100292.63;;;8.19;100.00
18819;BME280;9537;45.594;9.294;2022-12-29T03:34:11;100297.06;;;8.19;100.00
18819;BME280;9537;45.594;9.294;2022-12-29T03:35:17;100284.88;;;8.18;100.00
18819;BME280;9537;45.594;9.294;2022-12-29T03:36:26;100287.50;;;8.18;100.00
18819;BME280;9537;45.594;9.294;2022-12-29T03:37:32;100289.03;;;8.20;100.00
18819;BME280;9537;45.594;9.294;2022-12-29T03:38:39;100289.84;;;8.21;100.00
18819;BME280;9537;45.594;9.294;2022-12-29T03:39:44;100296.09;;;8.20;100.00
18819;BME280;9537;45.594;9.294;2022-12-29T03:40:48;100297.06;;;8.19;100.00
18819;BME280;9537;45.594;9.294;2022-12-29T03:41:55;100298.72;;;8.20;100.00
18819;BME280;9537;45.594;9.294;2022-12-29T03:42:58;100296.91;;;8.20;100.00
18819;BME280;9537;45.594;9.294;2022-12-29T03:44:00;100292.63;;;8.19;100.00
18819;BME280;9537;45.594;9.294;2022-12-29T03:45:05;100292.47;;;8.21;100.00
18819;BME280;9537;45.594;9.294;2022-12-29T03:46:08;100286.25;;;8.22;100.00
18819;BME280;9537;45.594;9.294;2022-12-29T03:47:10;100285.44;;;8.21;100.00
18819;BME280;9537;45.594;9.294;2022-12-29T03:48:14;100290.72;;;8.21;100.00
18819;BME280;9537;45.594;9.294;2022-12-29T03:49:15;100294.81;;;8.24;100.00
18819;BME280;9537;45.594;9.294;2022-12-29T03:50:17;100291.38;;;8.23;100.00
18819;BME280;9537;45.594;9.294;2022-12-29T03:51:18;100293.19;;;8.23;100.00
18819;BME280;9537;45.594;9.294;2022-12-29T03:52:20;100295.13;;;8.21;100.00
18819;BME280;9537;45.594;9.294;2022-12-29T03:53:21;100291.81;;;8.19;100.00
18819;BME280;9537;45.594;9.294;2022-12-29T03:54:23;100286.69;;;8.17;100.00
18819;BME280;9537;45.594;9.294;2022-12-29T03:55:25;100283.22;;;8.17;100.00
18819;BME280;9537;45.594;9.294;2022-12-29T03:56:26;100286.84;;;8.16;100.00
18819;BME280;9537;45.594;9.294;2022-12-29T03:57:28;100286.84;;;8.16;100.00
18819;BME280;9537;45.594;9.294;2022-12-29T03:58:29;100288.47;;;8.17;100.00
18819;BME280;9537;45.594;9.294;2022-12-29T03:59:31;100282.25;;;8.18;100.00
18819;BME280;9537;45.594;9.294;2022-12-29T04:00:32;100283.06;;;8.18;100.00
18819;BME280;9537;45.594;9.294;2022-12-29T04:01:34;100286.41;;;8.20;100.00
18819;BME280;9537;45.594;9.294;2022-12-29T04:02:35;100285.44;;;8.21;100.00
18819;BME280;9537;45.594;9.294;2022-12-29T04:03:39;100277.38;;;8.23;100.00
18819;BME280;9537;45.594;9.294;2022-12-29T04:04:43;100279.03;;;8.24;100.00
18819;BME280;9537;45.594;9.294;2022-12-29T04:05:46;100283.19;;;8.26;100.00
18819;BME280;9537;45.594;9.294;2022-12-29T04:06:47;100275.28;;;8.26;100.00
18819;BME280;9537;45.594;9.294;2022-12-29T04:07:48;100272.66;;;8.26;100.00
18819;BME280;9537;45.594;9.294;2022-12-29T04:08:49;100273.22;;;8.30;100.00
18819;BME280;9537;45.594;9.294;2022-12-29T04:09:51;100274.88;;;8.31;100.00
18819;BME280;9537;45.594;9.294;2022-12-29T04:10:53;100274.06;;;8.30;100.00
18819;BME280;9537;45.594;9.294;2022-12-29T04:11:55;100275.69;;;8.31;100.00
18819;BME280;9537;45.594;9.294;2022-12-29T04:12:56;100275.69;;;8.31;100.00
18819;BME280;9537;45.594;9.294;2022-12-29T04:13:58;100274.88;;;8.31;100.00
18819;BME280;9537;45.594;9.294;2022-12-29T04:14:59;100276.53;;;8.32;100.00
18819;BME280;9537;45.594;9.294;2022-12-29T04:16:01;100271.25;;;8.32;100.00
18819;BME280;9537;45.594;9.294;2022-12-29T04:17:02;100279.84;;;8.34;100.00
18819;BME280;9537;45.594;9.294;2022-12-29T04:18:04;100280.69;;;8.34;100.00
18819;BME280;9537;45.594;9.294;2022-12-29T04:19:07;100273.75;;;8.33;100.00
18819;BME280;9537;45.594;9.294;2022-12-29T04:20:09;100275.69;;;8.31;100.00
18819;BME280;9537;45.594;9.294;2022-12-29T04:21:28;100274.06;;;8.30;100.00
18819;BME280;9537;45.594;9.294;2022-12-29T04:22:30;100272.25;;;8.31;100.00
18819;BME280;9537;45.594;9.294;2022-12-29T04:23:34;100270.31;;;8.33;100.00
18819;BME280;9537;45.594;9.294;2022-12-29T04:24:36;100278.50;;;8.30;100.00
18819;BME280;9537;45.594;9.294;2022-12-29T04:25:37;100268.09;;;8.28;100.00
18819;BME280;9537;45.594;9.294;2022-12-29T04:26:39;100273.47;;;8.27;100.00
18819;BME280;9537;45.594;9.294;2022-12-29T04:27:41;100278.75;;;8.27;100.00
18819;BME280;9537;45.594;9.294;2022-12-29T04:28:42;100269.22;;;8.26;100.00
18819;BME280;9537;45.594;9.294;2022-12-29T04:29:44;100271.00;;;8.25;100.00
18819;BME280;9537;45.594;9.294;2022-12-29T04:30:45;100266.84;;;8.23;100.00
18819;BME280;9537;45.594;9.294;2022-12-29T04:31:47;100266.72;;;8.24;100.00
18819;BME280;9537;45.594;9.294;2022-12-29T04:32:49;100261.59;;;8.23;100.00
18819;BME280;9537;45.594;9.294;2022-12-29T04:33:51;100266.84;;;8.23;100.00
18819;BME280;9537;45.594;9.294;2022-12-29T04:34:53;100265.22;;;8.22;100.00
18819;BME280;9537;45.594;9.294;2022-12-29T04:35:55;100269.66;;;8.21;100.00
18819;BME280;9537;45.594;9.294;2022-12-29T04:36:56;100272.13;;;8.23;100.00
18819;BME280;9537;45.594;9.294;2022-12-29T04:37:59;100269.66;;;8.21;100.00
18819;BME280;9537;45.594;9.294;2022-12-29T04:39:01;100272.28;;;8.21;100.00
18819;BME280;9537;45.594;9.294;2022-12-29T04:40:02;100271.31;;;8.22;100.00
18819;BME280;9537;45.594;9.294;2022-12-29T04:41:04;100267.84;;;8.22;100.00
18819;BME280;9537;45.594;9.294;2022-12-29T04:42:05;100262.13;;;8.26;100.00
18819;BME280;9537;45.594;9.294;2022-12-29T04:43:08;100264.75;;;8.26;100.00
18819;BME280;9537;45.594;9.294;2022-12-29T04:44:09;100263.94;;;8.26;100.00
18819;BME280;9537;45.594;9.294;2022-12-29T04:45:11;100262.84;;;8.28;100.00
18819;BME280;9537;45.594;9.294;2022-12-29T04:46:12;100259.38;;;8.28;100.00
18819;BME280;9537;45.594;9.294;2022-12-29T04:47:14;100259.38;;;8.28;100.00
18819;BME280;9537;45.594;9.294;2022-12-29T04:48:15;100262.84;;;8.28;100.00
18819;BME280;9537;45.594;9.294;2022-12-29T04:49:17;100261.03;;;8.29;100.00
18819;BME280;9537;45.594;9.294;2022-12-29T04:50:19;100262.13;;;8.26;100.00
18819;BME280;9537;45.594;9.294;2022-12-29T04:51:21;100255.75;;;8.29;100.00
18819;BME280;9537;45.594;9.294;2022-12-29T04:52:23;100258.56;;;8.27;100.00
18819;BME280;9537;45.594;9.294;2022-12-29T04:53:25;100266.84;;;8.23;100.00
18819;BME280;9537;45.594;9.294;2022-12-29T04:54:26;100264.09;;;8.24;100.00
18819;BME280;9537;45.594;9.294;2022-12-29T04:55:28;100264.94;;;8.25;100.00
18819;BME280;9537;45.594;9.294;2022-12-29T04:56:29;100264.38;;;8.21;100.00
18819;BME280;9537;45.594;9.294;2022-12-29T04:57:31;100260.53;;;8.16;100.00
18819;BME280;9537;45.594;9.294;2022-12-29T04:58:32;100262.16;;;8.17;100.00
18819;BME280;9537;45.594;9.294;2022-12-29T04:59:34;100263.81;;;8.18;100.00
18819;BME280;9537;45.594;9.294;2022-12-29T05:00:35;100267.44;;;8.17;100.00
18819;BME280;9537;45.594;9.294;2022-12-29T05:01:38;100281.28;;;8.19;100.00
18819;BME280;9537;45.594;9.294;2022-12-29T05:02:40;100271.72;;;8.18;100.00
18819;BME280;9537;45.594;9.294;2022-12-29T05:03:42;100270.75;;;8.19;100.00
18819;BME280;9537;45.594;9.294;2022-12-29T05:04:43;100273.22;;;8.20;100.00
18819;BME280;9537;45.594;9.294;2022-12-29T05:05:46;100272.41;;;8.20;100.00
18819;BME280;9537;45.594;9.294;2022-12-29T05:06:47;100274.75;;;8.23;100.00
18819;BME280;9537;45.594;9.294;2022-12-29T05:07:50;100281.81;;;8.22;100.00
18819;BME280;9537;45.594;9.294;2022-12-29T05:08:51;100283.63;;;8.22;100.00
18819;BME280;9537;45.594;9.294;2022-12-29T05:09:53;100284.31;;;8.24;100.00
18819;BME280;9537;45.594;9.294;2022-12-29T05:10:54;100281.66;;;8.24;100.00
18819;BME280;9537;45.594;9.294;2022-12-29T05:11:56;100282.66;;;8.23;100.00
18819;BME280;9537;45.594;9.294;2022-12-29T05:12:58;100284.59;;;8.21;100.00
18819;BME280;9537;45.594;9.294;2022-12-29T05:14:00;100279.59;;;8.18;100.00
18819;BME280;9537;45.594;9.294;2022-12-29T05:15:01;100286.84;;;8.16;100.00
18819;BME280;9537;45.594;9.294;2022-12-29T05:16:04;100276.72;;;8.11;100.00
18819;BME280;9537;45.594;9.294;2022-12-29T05:17:05;100272.56;;;8.08;100.00
18819;BME280;9537;45.594;9.294;2022-12-29T05:18:07;100280.34;;;8.10;100.00
18819;BME280;9537;45.594;9.294;2022-12-29T05:19:08;100282.97;;;8.10;100.00
18819;BME280;9537;45.594;9.294;2022-12-29T05:20:10;100284.63;;;8.11;100.00
18819;BME280;9537;45.594;9.294;2022-12-29T05:21:13;100279.19;;;8.12;100.00
18819;BME280;9537;45.594;9.294;2022-12-29T05:22:14;100279.06;;;8.14;100.00
18819;BME280;9537;45.594;9.294;2022-12-29T05:23:15;100281.56;;;8.16;100.00
18819;BME280;9537;45.594;9.294;2022-12-29T05:24:18;100282.53;;;8.15;100.00
18819;BME280;9537;45.594;9.294;2022-12-29T05:25:19;100278.25;;;8.13;100.00
18819;BME280;9537;45.594;9.294;2022-12-29T05:26:21;100278.38;;;8.12;100.00
18819;BME280;9537;45.594;9.294;2022-12-29T05:27:22;100274.78;;;8.13;100.00
18819;BME280;9537;45.594;9.294;2022-12-29T05:28:24;100280.19;;;8.11;100.00
18819;BME280;9537;45.594;9.294;2022-12-29T05:29:25;100276.84;;;8.09;100.00
18819;BME280;9537;45.594;9.294;2022-12-29T05:30:27;100276.03;;;8.09;100.00
18819;BME280;9537;45.594;9.294;2022-12-29T05:31:28;100278.81;;;8.07;100.00
18819;BME280;9537;45.594;9.294;2022-12-29T05:32:30;100281.44;;;8.07;100.00
18819;BME280;9537;45.594;9.294;2022-12-29T05:33:31;100280.63;;;8.07;100.00
18819;BME280;9537;45.594;9.294;2022-12-29T05:34:33;100273.56;;;8.07;100.00
18819;BME280;9537;45.594;9.294;2022-12-29T05:35:34;100269.94;;;8.08;100.00
18819;BME280;9537;45.594;9.294;2022-12-29T05:36:38;100275.75;;;8.12;100.00
18819;BME280;9537;45.594;9.294;2022-12-29T05:37:40;100271.31;;;8.12;100.00
18819;BME280;9537;45.594;9.294;2022-12-29T05:38:42;100274.63;;;8.15;100.00
18819;BME280;9537;45.594;9.294;2022-12-29T05:39:43;100274.78;;;8.13;100.00
18819;BME280;9537;45.594;9.294;2022-12-29T05:40:45;100273.13;;;8.12;100.00
18819;BME280;9537;45.594;9.294;2022-12-29T05:41:47;100278.25;;;8.13;100.00
18819;BME280;9537;45.594;9.294;2022-12-29T05:42:49;100279.19;;;8.12;100.00
18819;BME280;9537;45.594;9.294;2022-12-29T05:43:50;100280.19;;;8.11;100.00
18819;BME280;9537;45.594;9.294;2022-12-29T05:44:51;100283.91;;;8.09;100.00
18819;BME280;9537;45.594;9.294;2022-12-29T05:45:54;100279.47;;;8.09;100.00
18819;BME280;9537;45.594;9.294;2022-12-29T05:46:57;100283.09;;;8.08;100.00
18819;BME280;9537;45.594;9.294;2022-12-29T05:47:58;100276.84;;;8.09;100.00
18819;BME280;9537;45.594;9.294;2022-12-29T05:49:00;100287.38;;;8.09;100.00
18819;BME280;9537;45.594;9.294;2022-12-29T05:50:01;100288.91;;;8.12;100.00
18819;BME280;9537;45.594;9.294;2022-12-29T05:51:03;100290.88;;;8.10;100.00